createdAt,value
2022-08-01T00:00:30.394Z,21.10
2022-08-01T00:03:01.206Z,21.09
2022-08-01T00:05:32.001Z,21.05
2022-08-01T00:08:02.676Z,20.96
2022-08-01T00:10:33.202Z,20.91
2022-08-01T00:13:05.372Z,20.84
2022-08-01T00:15:35.950Z,20.91
2022-08-01T00:18:06.620Z,20.82
2022-08-01T00:20:37.617Z,20.83
2022-08-01T00:23:08.161Z,20.90
2022-08-01T00:25:38.662Z,20.76
2022-08-01T00:28:09.666Z,20.62
2022-08-01T00:30:40.179Z,20.68
2022-08-01T00:33:10.704Z,20.56
2022-08-01T00:35:41.234Z,20.61
2022-08-01T00:38:12.164Z,20.54
2022-08-01T00:40:42.647Z,20.59
2022-08-01T00:43:13.169Z,20.50
2022-08-01T00:45:44.350Z,20.75
2022-08-01T00:48:15.044Z,20.47
2022-08-01T00:50:46.043Z,20.58
2022-08-01T00:53:18.656Z,20.41
2022-08-01T00:55:50.144Z,20.36
2022-08-01T00:58:21.401Z,20.37
2022-08-01T01:00:55.227Z,20.32
2022-08-01T01:06:16.683Z,20.22
2022-08-01T01:08:55.721Z,20.40
2022-08-01T01:11:31.935Z,20.29
2022-08-01T01:14:08.184Z,20.32
2022-08-01T01:16:41.573Z,20.37
2022-08-01T01:19:15.022Z,20.38
2022-08-01T01:22:00.772Z,20.34
2022-08-01T01:25:01.672Z,20.40
2022-08-01T01:27:54.826Z,20.26
2022-08-01T01:30:29.523Z,20.25
2022-08-01T01:33:05.342Z,20.24
2022-08-01T01:35:38.857Z,20.24
2022-08-01T01:38:15.154Z,20.20
2022-08-01T01:40:47.097Z,20.36
2022-08-01T01:43:19.829Z,20.24
2022-08-01T01:45:51.024Z,20.34
2022-08-01T01:48:24.773Z,20.20
2022-08-01T01:50:57.818Z,20.26
2022-08-01T01:53:30.574Z,20.33
2022-08-01T01:56:02.674Z,20.18
2022-08-01T01:58:35.835Z,20.09
2022-08-01T02:01:14.269Z,20.04
2022-08-01T02:03:42.635Z,20.06
2022-08-01T02:06:15.550Z,19.90
2022-08-01T02:08:47.507Z,19.81
2022-08-01T02:11:21.663Z,19.90
2022-08-01T02:14:04.119Z,19.82
2022-08-01T02:16:37.318Z,19.68
2022-08-01T02:19:08.098Z,19.59
2022-08-01T02:21:44.285Z,19.66
2022-08-01T02:24:20.639Z,19.63
2022-08-01T02:26:55.793Z,19.61
2022-08-01T02:29:29.330Z,19.76
2022-08-01T02:32:01.667Z,19.72
2022-08-01T02:34:33.463Z,19.60
2022-08-01T02:37:07.481Z,19.65
2022-08-01T02:39:39.626Z,19.59
2022-08-01T02:42:12.711Z,19.44
2022-08-01T02:44:45.076Z,19.43
2022-08-01T02:47:17.145Z,19.33
2022-08-01T02:49:53.483Z,19.42
2022-08-01T02:52:24.432Z,19.33
2022-08-01T02:54:57.279Z,19.30
2022-08-01T02:57:37.660Z,19.32
2022-08-01T03:00:01.770Z,19.27
2022-08-01T03:02:34.202Z,19.24
2022-08-01T03:05:05.586Z,19.28
2022-08-01T03:07:40.495Z,19.29
2022-08-01T03:10:09.989Z,19.37
2022-08-01T03:12:42.015Z,19.43
2022-08-01T03:15:13.859Z,19.46
2022-08-01T03:17:47.318Z,19.36
2022-08-01T03:20:19.929Z,19.45
2022-08-01T03:22:53.746Z,19.57
2022-08-01T03:25:25.800Z,19.37
2022-08-01T03:27:59.349Z,19.54
2022-08-01T03:30:31.568Z,19.37
2022-08-01T03:33:02.839Z,19.53
2022-08-01T03:35:42.263Z,19.50
2022-08-01T03:38:16.695Z,19.61
2022-08-01T03:40:53.184Z,19.71
2022-08-01T03:43:32.905Z,19.74
2022-08-01T03:46:08.659Z,19.70
2022-08-01T03:48:45.264Z,19.78
2022-08-01T03:51:17.288Z,19.85
2022-08-01T03:53:50.497Z,19.82
2022-08-01T03:56:22.723Z,19.98
2022-08-01T03:58:54.570Z,19.98
2022-08-01T04:01:25.541Z,20.04
2022-08-01T04:03:56.361Z,20.02
2022-08-01T04:06:27.091Z,20.14
2022-08-01T04:08:58.080Z,20.04
2022-08-01T04:11:30.119Z,20.05
2022-08-01T04:14:00.652Z,19.95
2022-08-01T04:16:31.202Z,19.94
2022-08-01T04:19:02.184Z,20.16
2022-08-01T04:21:34.231Z,20.02
2022-08-01T04:24:07.737Z,19.97
2022-08-01T04:26:47.996Z,19.98
2022-08-01T04:29:15.202Z,20.06
2022-08-01T04:31:48.255Z,20.09
2022-08-01T04:34:22.172Z,20.16
2022-08-01T04:36:55.063Z,20.08
2022-08-01T04:39:31.879Z,20.13
2022-08-01T04:42:04.947Z,20.08
2022-08-01T04:44:36.138Z,20.14
2022-08-01T04:47:08.855Z,20.14
2022-08-01T04:49:48.576Z,20.04
2022-08-01T04:52:16.861Z,20.09
2022-08-01T04:54:44.167Z,20.12
2022-08-01T04:57:15.875Z,19.92
2022-08-01T04:59:47.292Z,19.97
2022-08-01T05:02:19.644Z,19.85
2022-08-01T05:04:50.194Z,19.97
2022-08-01T05:07:20.620Z,19.74
2022-08-01T05:09:51.463Z,19.68
2022-08-01T05:12:23.425Z,19.64
2022-08-01T05:14:54.068Z,19.80
2022-08-01T05:17:24.631Z,19.69
2022-08-01T05:19:55.261Z,19.75
2022-08-01T05:22:26.557Z,19.86
2022-08-01T05:25:00.511Z,19.99
2022-08-01T05:27:31.374Z,20.10
2022-08-01T05:30:03.109Z,20.03
2022-08-01T05:32:35.331Z,19.90
2022-08-01T05:35:07.069Z,19.86
2022-08-01T05:37:37.463Z,20.01
2022-08-01T05:40:08.932Z,20.00
2022-08-01T05:42:39.318Z,20.17
2022-08-01T05:45:10.265Z,20.31
2022-08-01T05:47:42.981Z,20.64
2022-08-01T05:50:13.242Z,20.73
2022-08-01T05:52:43.601Z,20.74
2022-08-01T05:55:14.914Z,20.66
2022-08-01T05:57:45.358Z,20.72
2022-08-01T06:00:17.159Z,20.71
2022-08-01T06:02:47.579Z,20.58
2022-08-01T06:05:19.031Z,20.55
2022-08-01T06:07:49.488Z,20.47
2022-08-01T06:10:19.964Z,20.09
2022-08-01T06:12:50.471Z,20.37
2022-08-01T06:15:20.921Z,20.50
2022-08-01T06:17:52.549Z,20.26
2022-08-01T06:20:23.388Z,20.57
2022-08-01T06:22:53.761Z,20.35
2022-08-01T06:25:25.505Z,20.22
2022-08-01T06:27:56.094Z,20.43
2022-08-01T06:30:26.723Z,20.34
2022-08-01T06:32:59.201Z,20.50
2022-08-01T06:35:30.790Z,20.72
2022-08-01T06:38:01.607Z,21.00
2022-08-01T06:40:33.745Z,21.44
2022-08-01T06:43:06.150Z,21.34
2022-08-01T06:45:37.640Z,21.46
2022-08-01T06:48:08.245Z,21.49
2022-08-01T06:50:39.106Z,21.56
2022-08-01T06:53:09.546Z,21.33
2022-08-01T06:55:39.975Z,21.04
2022-08-01T06:58:10.406Z,20.67
2022-08-01T07:00:40.991Z,20.72
2022-08-01T07:03:11.408Z,20.61
2022-08-01T07:05:41.861Z,20.69
2022-08-01T07:08:12.443Z,20.52
2022-08-01T07:10:44.184Z,20.75
2022-08-01T07:13:16.003Z,20.62
2022-08-01T07:15:46.396Z,20.57
2022-08-01T07:18:16.888Z,20.72
2022-08-01T07:20:51.169Z,20.90
2022-08-01T07:23:21.883Z,20.74
2022-08-01T07:25:55.879Z,20.59
2022-08-01T07:28:25.704Z,20.25
2022-08-01T07:30:56.155Z,20.23
2022-08-01T07:33:26.768Z,20.24
2022-08-01T07:35:58.940Z,20.53
2022-08-01T07:38:30.532Z,21.00
2022-08-01T07:41:00.979Z,21.39
2022-08-01T07:43:31.491Z,22.09
2022-08-01T07:46:01.890Z,22.18
2022-08-01T07:48:32.730Z,22.15
2022-08-01T07:51:03.199Z,21.57
2022-08-01T07:53:33.864Z,21.26
2022-08-01T07:56:06.036Z,20.83
2022-08-01T07:58:36.819Z,20.72
2022-08-01T08:01:07.382Z,20.54
2022-08-01T08:03:37.813Z,20.49
2022-08-01T08:06:08.370Z,20.60
2022-08-01T08:08:38.729Z,20.50
2022-08-01T08:11:09.739Z,20.39
2022-08-01T08:13:40.244Z,20.30
2022-08-01T08:16:13.027Z,20.67
2022-08-01T08:18:43.627Z,20.93
2022-08-01T08:21:14.082Z,21.19
2022-08-01T08:24:02.801Z,21.34
2022-08-01T08:26:33.268Z,21.34
2022-08-01T08:29:03.715Z,21.45
2022-08-01T08:31:51.324Z,21.32
2022-08-01T08:34:07.654Z,21.36
2022-08-01T08:36:38.765Z,21.94
2022-08-01T08:39:11.248Z,22.31
2022-08-01T08:41:41.824Z,22.56
2022-08-01T08:44:14.398Z,22.32
2022-08-01T08:46:48.799Z,21.78
2022-08-01T08:49:26.656Z,21.48
2022-08-01T08:52:00.307Z,21.38
2022-08-01T08:54:32.756Z,21.80
2022-08-01T08:57:03.659Z,21.99
2022-08-01T08:59:36.387Z,21.88
2022-08-01T09:02:08.207Z,22.78
2022-08-01T09:04:41.130Z,23.04
2022-08-01T09:07:12.650Z,22.86
2022-08-01T09:09:43.975Z,22.41
2022-08-01T09:12:17.607Z,22.24
2022-08-01T09:14:51.128Z,22.10
2022-08-01T09:17:22.269Z,21.88
2022-08-01T09:19:59.070Z,22.03
2022-08-01T09:22:32.723Z,22.36
2022-08-01T09:25:09.577Z,22.69
2022-08-01T09:27:44.045Z,22.74
2022-08-01T09:30:19.561Z,22.62
2022-08-01T09:33:11.547Z,22.36
2022-08-01T09:35:43.888Z,22.16
2022-08-01T09:38:24.643Z,21.92
2022-08-01T09:40:59.010Z,21.67
2022-08-01T09:43:32.681Z,21.71
2022-08-01T09:46:12.546Z,21.83
2022-08-01T09:48:42.739Z,21.79
2022-08-01T09:51:58.405Z,21.98
2022-08-01T09:53:53.409Z,22.42
2022-08-01T09:56:25.083Z,22.23
2022-08-01T09:59:01.645Z,22.39
2022-08-01T10:01:48.910Z,22.51
2022-08-01T10:04:25.577Z,22.48
2022-08-01T10:06:59.951Z,22.78
2022-08-01T10:09:39.663Z,22.78
2022-08-01T10:12:07.686Z,23.05
2022-08-01T10:14:41.273Z,23.31
2022-08-01T10:17:18.286Z,23.01
2022-08-01T10:19:47.834Z,22.94
2022-08-01T10:22:19.997Z,22.82
2022-08-01T10:24:51.975Z,22.98
2022-08-01T10:27:24.373Z,22.84
2022-08-01T10:30:19.413Z,22.48
2022-08-01T10:32:42.871Z,22.30
2022-08-01T10:35:17.006Z,22.24
2022-08-01T10:37:52.225Z,22.42
2022-08-01T10:40:31.661Z,22.13
2022-08-01T10:42:56.904Z,22.17
2022-08-01T10:45:30.301Z,22.30
2022-08-01T10:48:06.134Z,22.55
2022-08-01T10:50:40.592Z,22.22
2022-08-01T10:53:31.868Z,22.06
2022-08-01T10:56:03.190Z,22.16
2022-08-01T10:58:42.744Z,22.51
2022-08-01T11:01:27.845Z,22.80
2022-08-01T11:04:05.575Z,22.88
2022-08-01T11:06:57.022Z,23.33
2022-08-01T11:09:36.412Z,23.83
2022-08-01T11:12:13.145Z,23.41
2022-08-01T11:15:05.551Z,23.16
2022-08-01T11:17:43.341Z,22.78
2022-08-01T11:20:17.366Z,22.20
2022-08-01T11:23:04.956Z,21.61
2022-08-01T11:26:04.950Z,21.19
2022-08-01T11:28:32.266Z,21.04
2022-08-01T11:31:14.070Z,21.06
2022-08-01T11:33:50.257Z,21.04
2022-08-01T11:36:36.854Z,21.03
2022-08-01T11:39:13.354Z,21.33
2022-08-01T11:41:41.038Z,21.76
2022-08-01T11:44:20.785Z,21.96
2022-08-01T11:47:08.885Z,22.32
2022-08-01T11:49:48.955Z,22.51
2022-08-01T11:52:27.743Z,23.22
2022-08-01T11:55:01.241Z,23.65
2022-08-01T11:57:35.877Z,23.74
2022-08-01T12:00:16.722Z,23.84
2022-08-01T12:02:48.634Z,24.01
2022-08-01T12:05:24.664Z,24.54
2022-08-01T12:07:56.104Z,25.19
2022-08-01T12:10:31.302Z,24.89
2022-08-01T12:13:04.285Z,25.57
2022-08-01T12:15:37.467Z,25.14
2022-08-01T12:18:09.310Z,25.23
2022-08-01T12:20:56.165Z,24.65
2022-08-01T12:23:17.308Z,24.72
2022-08-01T12:25:50.771Z,24.95
2022-08-01T12:28:21.207Z,24.74
2022-08-01T12:30:52.167Z,25.09
2022-08-01T12:33:23.655Z,25.17
2022-08-01T12:35:54.159Z,25.46
2022-08-01T12:38:25.957Z,25.13
2022-08-01T12:40:57.515Z,25.02
2022-08-01T12:43:29.561Z,25.61
2022-08-01T12:46:02.255Z,25.59
2022-08-01T12:48:33.440Z,25.13
2022-08-01T12:51:05.098Z,25.00
2022-08-01T12:53:40.166Z,25.24
2022-08-01T12:56:12.370Z,24.78
2022-08-01T12:58:42.963Z,24.68
2022-08-01T13:01:14.508Z,24.53
2022-08-01T13:03:48.083Z,24.25
2022-08-01T13:06:18.538Z,24.04
2022-08-01T13:08:48.997Z,23.35
2022-08-01T13:11:20.907Z,23.74
2022-08-01T13:13:54.075Z,23.86
2022-08-01T13:16:43.284Z,24.28
2022-08-01T13:18:59.696Z,24.49
2022-08-01T13:21:52.295Z,24.50
2022-08-01T13:24:11.788Z,24.38
2022-08-01T13:26:47.013Z,24.45
2022-08-01T13:29:23.996Z,24.66
2022-08-01T13:31:54.432Z,24.28
2022-08-01T13:34:34.100Z,24.06
2022-08-01T13:37:04.709Z,23.98
2022-08-01T13:39:41.477Z,23.94
2022-08-01T13:42:19.086Z,23.47
2022-08-01T13:44:47.350Z,23.17
2022-08-01T13:47:17.818Z,22.96
2022-08-01T13:49:48.292Z,22.91
2022-08-01T13:52:18.707Z,22.90
2022-08-01T13:54:49.316Z,23.08
2022-08-01T13:57:22.714Z,23.20
2022-08-01T13:59:53.439Z,23.64
2022-08-01T14:02:24.017Z,24.17
2022-08-01T14:04:56.756Z,24.26
2022-08-01T14:07:27.444Z,24.52
2022-08-01T14:10:05.194Z,24.63
2022-08-01T14:12:32.186Z,24.95
2022-08-01T14:15:03.820Z,25.43
2022-08-01T14:17:37.872Z,25.74
2022-08-01T14:20:08.013Z,25.58
2022-08-01T14:22:40.209Z,25.33
2022-08-01T14:25:11.111Z,25.65
2022-08-01T14:27:43.192Z,25.46
2022-08-01T14:30:14.946Z,25.30
2022-08-01T14:32:46.960Z,24.91
2022-08-01T14:35:18.970Z,24.82
2022-08-01T14:37:51.848Z,25.18
2022-08-01T14:40:23.961Z,25.39
2022-08-01T14:42:54.548Z,24.92
2022-08-01T14:45:25.256Z,24.97
2022-08-01T14:47:55.993Z,25.05
2022-08-01T14:50:29.301Z,24.67
2022-08-01T14:52:59.718Z,24.53
2022-08-01T14:55:30.187Z,24.41
2022-08-01T14:58:00.660Z,24.35
2022-08-01T15:00:32.084Z,24.01
2022-08-01T15:03:03.037Z,23.87
2022-08-01T15:05:33.798Z,24.10
2022-08-01T15:08:06.257Z,24.00
2022-08-01T15:10:36.855Z,23.73
2022-08-01T15:13:07.373Z,23.72
2022-08-01T15:15:37.941Z,23.92
2022-08-01T15:18:08.501Z,23.85
2022-08-01T15:20:38.930Z,23.96
2022-08-01T15:23:10.341Z,23.80
2022-08-01T15:25:42.110Z,23.75
2022-08-01T15:28:13.049Z,23.78
2022-08-01T15:30:44.059Z,24.06
2022-08-01T15:33:14.692Z,23.60
2022-08-01T15:35:46.506Z,23.82
2022-08-01T15:38:18.114Z,23.57
2022-08-01T15:40:48.568Z,23.38
2022-08-01T15:43:20.240Z,23.46
2022-08-01T15:45:51.197Z,23.55
2022-08-01T15:48:21.675Z,23.56
2022-08-01T15:50:52.491Z,23.78
2022-08-01T15:53:22.937Z,23.81
2022-08-01T15:55:53.631Z,23.89
2022-08-01T15:58:25.615Z,23.79
2022-08-01T16:00:56.082Z,23.85
2022-08-01T16:03:27.767Z,23.78
2022-08-01T16:05:58.490Z,23.83
2022-08-01T16:08:29.044Z,23.71
2022-08-01T16:10:59.520Z,23.72
2022-08-01T16:13:30.219Z,23.86
2022-08-01T16:16:02.624Z,23.91
2022-08-01T16:18:33.134Z,23.94
2022-08-01T16:21:03.793Z,23.73
2022-08-01T16:23:34.636Z,23.75
2022-08-01T16:26:05.331Z,23.66
2022-08-01T16:28:37.522Z,23.70
2022-08-01T16:31:37.516Z,23.70
2022-08-01T16:33:54.169Z,24.02
2022-08-01T16:36:17.075Z,23.69
2022-08-01T16:38:45.721Z,23.82
2022-08-01T16:41:20.004Z,23.79
2022-08-01T16:43:53.633Z,23.75
2022-08-01T16:46:23.258Z,23.65
2022-08-01T16:48:54.167Z,23.63
2022-08-01T16:51:25.307Z,23.54
2022-08-01T16:53:57.081Z,23.67
2022-08-01T16:56:27.766Z,23.80
2022-08-01T16:58:58.132Z,23.74
2022-08-01T17:02:00.026Z,23.68
2022-08-01T17:04:01.914Z,23.62
2022-08-01T17:06:32.735Z,23.67
2022-08-01T17:09:04.560Z,23.50
2022-08-01T17:11:35.111Z,23.58
2022-08-01T17:14:06.020Z,23.59
2022-08-01T17:16:36.509Z,23.42
2022-08-01T17:19:10.150Z,23.56
2022-08-01T17:21:41.549Z,23.51
2022-08-01T17:24:14.842Z,23.50
2022-08-01T17:26:44.483Z,23.44
2022-08-01T17:29:16.843Z,23.36
2022-08-01T17:31:47.406Z,23.42
2022-08-01T17:34:17.877Z,23.36
2022-08-01T17:36:48.566Z,23.29
2022-08-01T17:39:23.478Z,23.38
2022-08-01T17:41:51.977Z,23.28
2022-08-01T17:44:23.867Z,23.22
2022-08-01T17:46:54.821Z,23.07
2022-08-01T17:49:52.132Z,23.07
2022-08-01T17:51:58.744Z,22.90
2022-08-01T17:54:29.292Z,22.94
2022-08-01T17:57:00.057Z,23.06
2022-08-01T17:59:31.053Z,22.89
2022-08-01T18:02:02.396Z,22.97
2022-08-01T18:04:34.726Z,23.13
2022-08-01T18:07:06.996Z,22.94
2022-08-01T18:09:45.666Z,23.00
2022-08-01T18:12:11.748Z,23.04
2022-08-01T18:14:44.787Z,22.93
2022-08-01T18:17:17.017Z,22.84
2022-08-01T18:19:47.467Z,22.85
2022-08-01T18:22:32.668Z,22.75
2022-08-01T18:24:50.967Z,22.86
2022-08-01T18:27:21.620Z,22.76
2022-08-01T18:29:52.127Z,22.69
2022-08-01T18:32:22.899Z,22.66
2022-08-01T18:34:53.393Z,22.58
2022-08-01T18:37:23.906Z,22.65
2022-08-01T18:39:55.951Z,22.52
2022-08-01T18:42:27.178Z,22.47
2022-08-01T18:44:57.649Z,22.54
2022-08-01T18:47:28.230Z,22.42
2022-08-01T18:49:58.711Z,22.42
2022-08-01T18:52:31.824Z,22.48
2022-08-01T18:55:01.457Z,22.53
2022-08-01T18:57:32.152Z,22.42
2022-08-01T19:00:02.978Z,22.46
2022-08-01T19:02:33.524Z,22.43
2022-08-01T19:05:04.076Z,22.35
2022-08-01T19:08:04.506Z,22.30
2022-08-01T19:10:07.309Z,22.34
2022-08-01T19:12:37.782Z,22.63
2022-08-01T19:15:08.991Z,22.34
2022-08-01T19:17:40.031Z,22.50
2022-08-01T19:20:10.966Z,22.57
2022-08-01T19:22:41.377Z,22.44
2022-08-01T19:25:13.454Z,22.48
2022-08-01T19:27:46.981Z,22.11
2022-08-01T19:30:19.345Z,22.22
2022-08-01T19:32:50.267Z,22.14
2022-08-01T19:35:20.816Z,21.94
2022-08-01T19:37:54.209Z,21.79
2022-08-01T19:40:26.894Z,21.65
2022-08-01T19:42:58.249Z,21.96
2022-08-01T19:45:30.227Z,21.70
2022-08-01T19:48:01.698Z,21.84
2022-08-01T19:50:33.969Z,21.64
2022-08-01T19:53:05.274Z,21.71
2022-08-01T19:55:39.616Z,21.59
2022-08-01T19:58:29.082Z,21.69
2022-08-01T20:00:47.768Z,21.64
2022-08-01T20:03:19.982Z,21.70
2022-08-01T20:05:52.607Z,21.69
2022-08-01T20:08:24.093Z,21.59
2022-08-01T20:10:55.053Z,21.65
2022-08-01T20:13:26.066Z,21.64
2022-08-01T20:15:58.843Z,21.60
2022-08-01T20:18:29.291Z,21.51
2022-08-01T20:21:01.079Z,21.44
2022-08-01T20:23:34.723Z,21.46
2022-08-01T20:26:06.273Z,21.45
2022-08-01T20:28:41.252Z,21.12
2022-08-01T20:31:12.618Z,21.13
2022-08-01T20:33:46.273Z,20.98
2022-08-01T20:36:25.588Z,21.13
2022-08-01T20:38:49.837Z,20.96
2022-08-01T20:41:24.360Z,20.95
2022-08-01T20:43:56.869Z,20.89
2022-08-01T20:46:29.370Z,20.92
2022-08-01T20:49:00.178Z,21.00
2022-08-01T20:51:31.544Z,20.86
2022-08-01T20:54:03.022Z,20.99
2022-08-01T20:56:45.728Z,21.18
2022-08-01T20:59:39.692Z,20.89
2022-08-01T21:02:05.450Z,20.68
2022-08-01T21:04:44.663Z,20.75
2022-08-01T21:07:25.258Z,20.61
2022-08-01T21:10:05.000Z,20.74
2022-08-01T21:12:54.341Z,20.82
2022-08-01T21:15:37.857Z,20.62
2022-08-01T21:18:16.667Z,20.82
2022-08-01T21:21:08.406Z,20.60
2022-08-01T21:24:09.412Z,20.65
2022-08-01T21:26:43.525Z,20.46
2022-08-01T21:29:17.417Z,20.38
2022-08-01T21:31:55.770Z,20.39
2022-08-01T21:34:28.661Z,20.36
2022-08-01T21:36:59.943Z,20.36
2022-08-01T21:39:30.857Z,20.35
2022-08-01T21:42:05.728Z,20.34
2022-08-01T21:44:35.068Z,20.25
2022-08-01T21:47:06.471Z,20.38
2022-08-01T21:49:38.817Z,20.22
2022-08-01T21:52:17.950Z,20.41
2022-08-01T21:54:54.161Z,20.32
2022-08-01T21:57:41.190Z,20.44
2022-08-01T22:00:21.038Z,20.40
2022-08-01T22:02:54.413Z,20.31
2022-08-01T22:05:50.434Z,20.45
2022-08-01T22:08:03.030Z,20.29
2022-08-01T22:10:35.424Z,20.43
2022-08-01T22:13:07.540Z,20.26
2022-08-01T22:15:44.791Z,20.01
2022-08-01T22:18:10.515Z,19.93
2022-08-01T22:20:41.350Z,19.91
2022-08-01T22:23:12.118Z,20.07
2022-08-01T22:25:43.091Z,19.86
2022-08-01T22:28:19.050Z,19.87
2022-08-01T22:30:52.129Z,19.91
2022-08-01T22:33:22.634Z,19.80
2022-08-01T22:35:57.455Z,19.60
2022-08-01T22:38:27.960Z,19.60
2022-08-01T22:41:13.335Z,19.64
2022-08-01T22:44:04.701Z,19.62
2022-08-01T22:46:42.721Z,19.70
2022-08-01T22:49:19.215Z,19.55
2022-08-01T22:51:54.906Z,19.46
2022-08-01T22:54:30.654Z,19.46
2022-08-01T22:57:05.735Z,19.66
2022-08-01T23:00:01.793Z,19.50
2022-08-01T23:02:34.321Z,19.50
2022-08-01T23:05:08.167Z,19.38
2022-08-01T23:07:44.536Z,19.37
2022-08-01T23:10:15.471Z,19.43
2022-08-01T23:12:46.715Z,19.38
2022-08-01T23:15:18.987Z,19.46
2022-08-01T23:17:51.158Z,19.46
2022-08-01T23:20:22.454Z,19.64
2022-08-01T23:22:55.477Z,19.50
2022-08-01T23:25:28.174Z,19.51
2022-08-01T23:28:05.915Z,19.32
2022-08-01T23:30:34.310Z,19.26
2022-08-01T23:33:05.479Z,19.19
2022-08-01T23:35:38.922Z,19.21
2022-08-01T23:38:10.866Z,19.23
2022-08-01T23:40:41.523Z,19.08
2022-08-01T23:43:16.997Z,19.22
2022-08-01T23:46:02.692Z,19.24
2022-08-01T23:48:17.787Z,19.29
2022-08-01T23:50:49.532Z,19.16
2022-08-01T23:53:20.089Z,19.19
2022-08-01T23:55:51.411Z,19.23
2022-08-01T23:58:23.442Z,19.47
